sensor_id;sensor_type;location;lat;lon;timestamp;temperature;humidity
21493;DHT22;10908;50.690;4.400;2023-11-19T00:02:20;13.50;94.30
21493;DHT22;10908;50.690;4.400;2023-11-19T00:04:46;13.50;94.20
21493;DHT22;10908;50.690;4.400;2023-11-19T00:07:11;13.60;94.10
21493;DHT22;10908;50.690;4.400;2023-11-19T00:09:38;13.50;94.10
21493;DHT22;10908;50.690;4.400;2023-11-19T00:12:06;13.60;94.00
21493;DHT22;10908;50.690;4.400;2023-11-19T00:14:32;13.50;94.00
21493;DHT22;10908;50.690;4.400;2023-11-19T00:16:57;13.60;94.00
21493;DHT22;10908;50.690;4.400;2023-11-19T00:19:23;13.60;93.90
21493;DHT22;10908;50.690;4.400;2023-11-19T00:21:48;13.60;93.90
21493;DHT22;10908;50.690;4.400;2023-11-19T00:24:14;13.50;93.80
21493;DHT22;10908;50.690;4.400;2023-11-19T00:26:43;13.60;93.70
21493;DHT22;10908;50.690;4.400;2023-11-19T00:29:09;13.60;93.60
21493;DHT22;10908;50.690;4.400;2023-11-19T00:31:34;13.60;93.50
21493;DHT22;10908;50.690;4.400;2023-11-19T00:34:01;13.60;93.40
21493;DHT22;10908;50.690;4.400;2023-11-19T00:36:27;13.60;93.30
21493;DHT22;10908;50.690;4.400;2023-11-19T00:38:53;13.60;93.20
21493;DHT22;10908;50.690;4.400;2023-11-19T00:41:19;13.60;93.10
21493;DHT22;10908;50.690;4.400;2023-11-19T00:43:45;13.60;93.00
21493;DHT22;10908;50.690;4.400;2023-11-19T00:46:10;13.60;92.90
21493;DHT22;10908;50.690;4.400;2023-11-19T00:48:36;13.60;92.70
21493;DHT22;10908;50.690;4.400;2023-11-19T00:51:02;13.60;92.50
21493;DHT22;10908;50.690;4.400;2023-11-19T00:53:29;13.60;92.40
21493;DHT22;10908;50.690;4.400;2023-11-19T00:55:55;13.50;92.40
21493;DHT22;10908;50.690;4.400;2023-11-19T00:58:21;13.60;92.30
21493;DHT22;10908;50.690;4.400;2023-11-19T01:00:47;13.50;92.20
21493;DHT22;10908;50.690;4.400;2023-11-19T01:03:13;13.50;92.20
21493;DHT22;10908;50.690;4.400;2023-11-19T01:05:40;13.60;92.10
21493;DHT22;10908;50.690;4.400;2023-11-19T01:08:05;13.60;92.00
21493;DHT22;10908;50.690;4.400;2023-11-19T01:10:31;13.60;91.70
21493;DHT22;10908;50.690;4.400;2023-11-19T01:12:57;13.50;91.50
21493;DHT22;10908;50.690;4.400;2023-11-19T01:15:23;13.50;91.40
21493;DHT22;10908;50.690;4.400;2023-11-19T01:17:49;13.50;91.30
21493;DHT22;10908;50.690;4.400;2023-11-19T01:20:14;13.50;91.30
21493;DHT22;10908;50.690;4.400;2023-11-19T01:22:40;13.60;91.10
21493;DHT22;10908;50.690;4.400;2023-11-19T01:25:06;13.50;91.10
21493;DHT22;10908;50.690;4.400;2023-11-19T01:27:32;13.60;91.10
21493;DHT22;10908;50.690;4.400;2023-11-19T01:30:00;13.50;91.10
21493;DHT22;10908;50.690;4.400;2023-11-19T01:32:31;13.40;91.00
21493;DHT22;10908;50.690;4.400;2023-11-19T01:34:57;13.40;91.10
21493;DHT22;10908;50.690;4.400;2023-11-19T01:37:23;13.40;91.20
21493;DHT22;10908;50.690;4.400;2023-11-19T01:39:49;13.50;91.20
21493;DHT22;10908;50.690;4.400;2023-11-19T01:42:14;13.50;91.10
21493;DHT22;10908;50.690;4.400;2023-11-19T01:44:41;13.50;91.00
21493;DHT22;10908;50.690;4.400;2023-11-19T01:47:07;13.50;91.10
21493;DHT22;10908;50.690;4.400;2023-11-19T01:49:34;13.50;90.90
21493;DHT22;10908;50.690;4.400;2023-11-19T01:52:00;13.50;90.70
21493;DHT22;10908;50.690;4.400;2023-11-19T01:54:27;13.60;90.50
21493;DHT22;10908;50.690;4.400;2023-11-19T01:56:56;13.50;90.40
21493;DHT22;10908;50.690;4.400;2023-11-19T01:59:24;13.40;90.40
21493;DHT22;10908;50.690;4.400;2023-11-19T02:01:55;13.40;90.40
21493;DHT22;10908;50.690;4.400;2023-11-19T02:04:21;13.30;90.40
21493;DHT22;10908;50.690;4.400;2023-11-19T02:06:48;13.40;90.40
21493;DHT22;10908;50.690;4.400;2023-11-19T02:09:19;13.30;90.50
21493;DHT22;10908;50.690;4.400;2023-11-19T02:11:45;13.40;90.50
21493;DHT22;10908;50.690;4.400;2023-11-19T02:14:14;13.40;90.50
21493;DHT22;10908;50.690;4.400;2023-11-19T02:16:40;13.40;90.30
21493;DHT22;10908;50.690;4.400;2023-11-19T02:19:06;13.40;90.20
21493;DHT22;10908;50.690;4.400;2023-11-19T02:21:32;13.40;90.00
21493;DHT22;10908;50.690;4.400;2023-11-19T02:23:57;13.40;89.80
21493;DHT22;10908;50.690;4.400;2023-11-19T02:26:44;13.40;89.70
21493;DHT22;10908;50.690;4.400;2023-11-19T02:29:13;13.40;89.90
21493;DHT22;10908;50.690;4.400;2023-11-19T02:31:39;13.40;90.10
21493;DHT22;10908;50.690;4.400;2023-11-19T02:34:04;13.40;90.00
21493;DHT22;10908;50.690;4.400;2023-11-19T02:36:31;13.40;90.30
21493;DHT22;10908;50.690;4.400;2023-11-19T02:38:58;13.40;90.40
21493;DHT22;10908;50.690;4.400;2023-11-19T02:41:23;13.40;90.50
21493;DHT22;10908;50.690;4.400;2023-11-19T02:43:49;13.30;90.50
21493;DHT22;10908;50.690;4.400;2023-11-19T02:46:15;13.30;90.60
21493;DHT22;10908;50.690;4.400;2023-11-19T02:48:43;13.30;90.50
21493;DHT22;10908;50.690;4.400;2023-11-19T02:51:09;13.30;90.50
21493;DHT22;10908;50.690;4.400;2023-11-19T02:53:36;13.30;90.20
21493;DHT22;10908;50.690;4.400;2023-11-19T02:56:05;13.10;90.20
21493;DHT22;10908;50.690;4.400;2023-11-19T02:58:44;13.10;90.10
21493;DHT22;10908;50.690;4.400;2023-11-19T03:01:11;13.00;90.00
21493;DHT22;10908;50.690;4.400;2023-11-19T03:03:48;13.00;90.10
21493;DHT22;10908;50.690;4.400;2023-11-19T03:06:19;13.00;89.90
21493;DHT22;10908;50.690;4.400;2023-11-19T03:08:45;13.00;89.90
21493;DHT22;10908;50.690;4.400;2023-11-19T03:11:10;12.90;89.70
21493;DHT22;10908;50.690;4.400;2023-11-19T03:13:36;12.90;89.70
21493;DHT22;10908;50.690;4.400;2023-11-19T03:16:01;12.90;89.80
21493;DHT22;10908;50.690;4.400;2023-11-19T03:18:27;12.90;89.70
21493;DHT22;10908;50.690;4.400;2023-11-19T03:20:53;12.90;89.60
21493;DHT22;10908;50.690;4.400;2023-11-19T03:23:19;12.80;89.60
21493;DHT22;10908;50.690;4.400;2023-11-19T03:25:45;12.80;89.60
21493;DHT22;10908;50.690;4.400;2023-11-19T03:28:10;12.80;89.60
21493;DHT22;10908;50.690;4.400;2023-11-19T03:30:36;12.80;89.70
21493;DHT22;10908;50.690;4.400;2023-11-19T03:33:02;12.80;89.70
21493;DHT22;10908;50.690;4.400;2023-11-19T03:35:28;12.80;89.80
21493;DHT22;10908;50.690;4.400;2023-11-19T03:37:54;12.70;89.80
21493;DHT22;10908;50.690;4.400;2023-11-19T03:40:20;12.70;89.90
21493;DHT22;10908;50.690;4.400;2023-11-19T03:42:46;12.70;89.90
21493;DHT22;10908;50.690;4.400;2023-11-19T03:45:12;12.80;89.90
21493;DHT22;10908;50.690;4.400;2023-11-19T03:47:37;12.80;89.70
21493;DHT22;10908;50.690;4.400;2023-11-19T03:50:04;12.80;89.60
21493;DHT22;10908;50.690;4.400;2023-11-19T03:52:30;12.70;89.40
21493;DHT22;10908;50.690;4.400;2023-11-19T03:54:56;12.80;89.60
21493;DHT22;10908;50.690;4.400;2023-11-19T03:57:22;12.80;89.50
21493;DHT22;10908;50.690;4.400;2023-11-19T03:59:48;12.90;89.30
21493;DHT22;10908;50.690;4.400;2023-11-19T04:02:15;12.80;89.10
21493;DHT22;10908;50.690;4.400;2023-11-19T04:04:41;12.80;89.00
21493;DHT22;10908;50.690;4.400;2023-11-19T04:07:06;12.80;88.80
21493;DHT22;10908;50.690;4.400;2023-11-19T04:09:32;12.80;88.60
21493;DHT22;10908;50.690;4.400;2023-11-19T04:12:03;12.80;88.30
21493;DHT22;10908;50.690;4.400;2023-11-19T04:14:29;12.90;88.00
21493;DHT22;10908;50.690;4.400;2023-11-19T04:16:54;12.90;87.80
21493;DHT22;10908;50.690;4.400;2023-11-19T04:19:20;12.90;87.70
21493;DHT22;10908;50.690;4.400;2023-11-19T04:21:46;12.90;87.70
21493;DHT22;10908;50.690;4.400;2023-11-19T04:24:12;12.80;87.70
21493;DHT22;10908;50.690;4.400;2023-11-19T04:26:45;12.80;87.90
21493;DHT22;10908;50.690;4.400;2023-11-19T04:29:15;12.80;88.00
21493;DHT22;10908;50.690;4.400;2023-11-19T04:31:42;12.80;88.10
21493;DHT22;10908;50.690;4.400;2023-11-19T04:34:08;12.80;88.20
21493;DHT22;10908;50.690;4.400;2023-11-19T04:36:34;12.80;88.20
21493;DHT22;10908;50.690;4.400;2023-11-19T04:39:00;12.70;88.10
21493;DHT22;10908;50.690;4.400;2023-11-19T04:41:26;12.70;88.00
21493;DHT22;10908;50.690;4.400;2023-11-19T04:43:55;12.70;88.00
21493;DHT22;10908;50.690;4.400;2023-11-19T04:46:21;12.70;87.90
21493;DHT22;10908;50.690;4.400;2023-11-19T04:48:47;12.70;87.70
21493;DHT22;10908;50.690;4.400;2023-11-19T04:51:12;12.60;87.60
21493;DHT22;10908;50.690;4.400;2023-11-19T04:53:38;12.60;87.50
21493;DHT22;10908;50.690;4.400;2023-11-19T04:56:11;12.70;87.40
21493;DHT22;10908;50.690;4.400;2023-11-19T04:58:36;12.60;87.40
21493;DHT22;10908;50.690;4.400;2023-11-19T05:01:05;12.60;87.50
21493;DHT22;10908;50.690;4.400;2023-11-19T05:03:32;12.60;87.50
21493;DHT22;10908;50.690;4.400;2023-11-19T05:06:00;12.60;87.40
21493;DHT22;10908;50.690;4.400;2023-11-19T05:08:25;12.60;87.40
21493;DHT22;10908;50.690;4.400;2023-11-19T05:10:51;12.60;87.20
21493;DHT22;10908;50.690;4.400;2023-11-19T05:13:16;12.60;87.10
21493;DHT22;10908;50.690;4.400;2023-11-19T05:15:42;12.60;87.00
21493;DHT22;10908;50.690;4.400;2023-11-19T05:18:08;12.60;87.00
21493;DHT22;10908;50.690;4.400;2023-11-19T05:20:34;12.60;87.10
21493;DHT22;10908;50.690;4.400;2023-11-19T05:22:59;12.60;87.20
21493;DHT22;10908;50.690;4.400;2023-11-19T05:25:28;12.60;87.20
21493;DHT22;10908;50.690;4.400;2023-11-19T05:27:54;12.60;87.30
21493;DHT22;10908;50.690;4.400;2023-11-19T05:30:19;12.60;87.20
21493;DHT22;10908;50.690;4.400;2023-11-19T05:32:45;12.60;87.30
21493;DHT22;10908;50.690;4.400;2023-11-19T05:35:11;12.60;87.40
21493;DHT22;10908;50.690;4.400;2023-11-19T05:37:37;12.60;87.50
21493;DHT22;10908;50.690;4.400;2023-11-19T05:40:03;12.80;87.40
21493;DHT22;10908;50.690;4.400;2023-11-19T05:42:32;12.80;87.40
21493;DHT22;10908;50.690;4.400;2023-11-19T05:44:57;12.80;87.40
21493;DHT22;10908;50.690;4.400;2023-11-19T05:47:23;12.70;87.40
21493;DHT22;10908;50.690;4.400;2023-11-19T05:49:48;12.60;87.40
21493;DHT22;10908;50.690;4.400;2023-11-19T05:54:43;12.50;87.10
21493;DHT22;10908;50.690;4.400;2023-11-19T05:57:09;12.50;87.40
21493;DHT22;10908;50.690;4.400;2023-11-19T05:59:35;12.50;87.50
21493;DHT22;10908;50.690;4.400;2023-11-19T06:02:02;12.40;87.40
21493;DHT22;10908;50.690;4.400;2023-11-19T06:04:28;12.40;87.30
21493;DHT22;10908;50.690;4.400;2023-11-19T06:06:53;12.40;87.20
21493;DHT22;10908;50.690;4.400;2023-11-19T06:09:21;12.30;87.20
21493;DHT22;10908;50.690;4.400;2023-11-19T06:11:49;12.30;87.30
21493;DHT22;10908;50.690;4.400;2023-11-19T06:14:14;12.30;87.40
21493;DHT22;10908;50.690;4.400;2023-11-19T06:16:40;12.30;87.50
21493;DHT22;10908;50.690;4.400;2023-11-19T06:19:05;12.40;87.40
21493;DHT22;10908;50.690;4.400;2023-11-19T06:21:31;12.40;87.20
21493;DHT22;10908;50.690;4.400;2023-11-19T06:23:57;12.40;87.20
21493;DHT22;10908;50.690;4.400;2023-11-19T06:26:23;12.40;87.00
21493;DHT22;10908;50.690;4.400;2023-11-19T06:28:49;12.30;86.80
21493;DHT22;10908;50.690;4.400;2023-11-19T06:31:15;12.30;86.90
21493;DHT22;10908;50.690;4.400;2023-11-19T06:33:42;12.30;86.80
21493;DHT22;10908;50.690;4.400;2023-11-19T06:36:08;12.20;86.80
21493;DHT22;10908;50.690;4.400;2023-11-19T06:38:35;12.30;86.80
21493;DHT22;10908;50.690;4.400;2023-11-19T06:41:00;12.30;86.70
21493;DHT22;10908;50.690;4.400;2023-11-19T06:43:26;12.20;86.70
21493;DHT22;10908;50.690;4.400;2023-11-19T06:45:53;12.20;86.70
21493;DHT22;10908;50.690;4.400;2023-11-19T06:48:19;12.20;86.70
21493;DHT22;10908;50.690;4.400;2023-11-19T06:50:44;12.20;86.80
21493;DHT22;10908;50.690;4.400;2023-11-19T06:53:10;12.10;86.90
21493;DHT22;10908;50.690;4.400;2023-11-19T06:55:35;12.10;86.90
21493;DHT22;10908;50.690;4.400;2023-11-19T06:58:01;12.00;86.90
21493;DHT22;10908;50.690;4.400;2023-11-19T07:00:28;12.00;87.20
21493;DHT22;10908;50.690;4.400;2023-11-19T07:02:54;12.10;87.20
21493;DHT22;10908;50.690;4.400;2023-11-19T07:05:20;12.10;86.90
21493;DHT22;10908;50.690;4.400;2023-11-19T07:07:46;12.00;86.50
21493;DHT22;10908;50.690;4.400;2023-11-19T07:10:12;12.10;86.50
21493;DHT22;10908;50.690;4.400;2023-11-19T07:12:38;12.10;86.50
21493;DHT22;10908;50.690;4.400;2023-11-19T07:15:04;12.10;86.40
21493;DHT22;10908;50.690;4.400;2023-11-19T07:17:31;12.10;86.40
21493;DHT22;10908;50.690;4.400;2023-11-19T07:19:56;12.00;86.10
21493;DHT22;10908;50.690;4.400;2023-11-19T07:22:25;12.00;86.10
21493;DHT22;10908;50.690;4.400;2023-11-19T07:24:51;12.00;86.10
21493;DHT22;10908;50.690;4.400;2023-11-19T07:27:17;12.00;85.90
21493;DHT22;10908;50.690;4.400;2023-11-19T07:29:43;12.10;85.80
21493;DHT22;10908;50.690;4.400;2023-11-19T07:32:10;12.10;85.50
21493;DHT22;10908;50.690;4.400;2023-11-19T07:34:35;12.10;85.40
21493;DHT22;10908;50.690;4.400;2023-11-19T07:37:01;12.00;85.40
21493;DHT22;10908;50.690;4.400;2023-11-19T07:39:28;12.00;85.40
21493;DHT22;10908;50.690;4.400;2023-11-19T07:41:54;12.00;85.40
21493;DHT22;10908;50.690;4.400;2023-11-19T07:44:20;12.00;85.50
21493;DHT22;10908;50.690;4.400;2023-11-19T07:46:47;11.90;85.40
21493;DHT22;10908;50.690;4.400;2023-11-19T07:49:13;11.90;85.50
21493;DHT22;10908;50.690;4.400;2023-11-19T07:51:39;12.00;85.80
21493;DHT22;10908;50.690;4.400;2023-11-19T07:54:04;12.00;85.70
21493;DHT22;10908;50.690;4.400;2023-11-19T07:56:31;12.00;85.70
21493;DHT22;10908;50.690;4.400;2023-11-19T07:58:56;12.00;85.70
21493;DHT22;10908;50.690;4.400;2023-11-19T08:01:22;11.90;85.80
21493;DHT22;10908;50.690;4.400;2023-11-19T08:03:49;11.90;85.90
21493;DHT22;10908;50.690;4.400;2023-11-19T08:06:14;12.10;85.80
21493;DHT22;10908;50.690;4.400;2023-11-19T08:08:40;12.00;85.80
21493;DHT22;10908;50.690;4.400;2023-11-19T08:11:06;12.10;85.90
21493;DHT22;10908;50.690;4.400;2023-11-19T08:13:31;12.00;85.80
21493;DHT22;10908;50.690;4.400;2023-11-19T08:15:57;12.10;85.70
21493;DHT22;10908;50.690;4.400;2023-11-19T08:18:24;12.10;85.40
21493;DHT22;10908;50.690;4.400;2023-11-19T08:20:50;12.10;85.20
21493;DHT22;10908;50.690;4.400;2023-11-19T08:23:21;12.10;85.40
21493;DHT22;10908;50.690;4.400;2023-11-19T08:25:49;12.10;85.20
21493;DHT22;10908;50.690;4.400;2023-11-19T08:28:15;12.20;85.10
21493;DHT22;10908;50.690;4.400;2023-11-19T08:30:40;12.10;85.10
21493;DHT22;10908;50.690;4.400;2023-11-19T08:33:06;12.20;85.10
21493;DHT22;10908;50.690;4.400;2023-11-19T08:35:32;12.30;85.10
21493;DHT22;10908;50.690;4.400;2023-11-19T08:37:58;12.50;84.80
21493;DHT22;10908;50.690;4.400;2023-11-19T08:40:24;12.60;84.60
21493;DHT22;10908;50.690;4.400;2023-11-19T08:42:51;12.60;84.00
21493;DHT22;10908;50.690;4.400;2023-11-19T08:45:17;12.70;83.70
21493;DHT22;10908;50.690;4.400;2023-11-19T08:47:42;12.80;83.60
21493;DHT22;10908;50.690;4.400;2023-11-19T08:50:08;12.80;83.50
21493;DHT22;10908;50.690;4.400;2023-11-19T08:52:34;12.90;83.50
21493;DHT22;10908;50.690;4.400;2023-11-19T08:55:00;12.80;83.30
21493;DHT22;10908;50.690;4.400;2023-11-19T08:57:25;12.90;83.20
21493;DHT22;10908;50.690;4.400;2023-11-19T08:59:51;12.90;83.20
21493;DHT22;10908;50.690;4.400;2023-11-19T09:02:16;12.90;83.30
21493;DHT22;10908;50.690;4.400;2023-11-19T09:04:43;12.90;82.80
21493;DHT22;10908;50.690;4.400;2023-11-19T09:07:09;12.70;83.10
21493;DHT22;10908;50.690;4.400;2023-11-19T09:09:35;12.80;83.30
21493;DHT22;10908;50.690;4.400;2023-11-19T09:12:02;12.70;83.70
21493;DHT22;10908;50.690;4.400;2023-11-19T09:14:29;12.70;83.70
21493;DHT22;10908;50.690;4.400;2023-11-19T09:16:55;12.60;84.00
21493;DHT22;10908;50.690;4.400;2023-11-19T09:19:21;12.60;84.20
21493;DHT22;10908;50.690;4.400;2023-11-19T09:21:47;12.50;84.50
21493;DHT22;10908;50.690;4.400;2023-11-19T09:24:15;12.50;84.70
21493;DHT22;10908;50.690;4.400;2023-11-19T09:26:40;12.50;85.10
21493;DHT22;10908;50.690;4.400;2023-11-19T09:29:10;12.50;85.50
21493;DHT22;10908;50.690;4.400;2023-11-19T09:31:38;12.50;85.80
21493;DHT22;10908;50.690;4.400;2023-11-19T09:34:03;12.60;85.60
21493;DHT22;10908;50.690;4.400;2023-11-19T09:36:29;12.60;85.30
21493;DHT22;10908;50.690;4.400;2023-11-19T09:38:55;12.60;85.10
21493;DHT22;10908;50.690;4.400;2023-11-19T09:41:20;12.60;85.20
21493;DHT22;10908;50.690;4.400;2023-11-19T09:43:46;12.60;85.20
21493;DHT22;10908;50.690;4.400;2023-11-19T09:46:15;12.60;85.20
21493;DHT22;10908;50.690;4.400;2023-11-19T09:48:42;12.50;85.60
21493;DHT22;10908;50.690;4.400;2023-11-19T09:51:09;12.40;86.20
21493;DHT22;10908;50.690;4.400;2023-11-19T09:53:35;12.40;86.40
21493;DHT22;10908;50.690;4.400;2023-11-19T09:56:03;12.40;86.60
21493;DHT22;10908;50.690;4.400;2023-11-19T09:58:29;12.50;86.50
21493;DHT22;10908;50.690;4.400;2023-11-19T10:00:56;12.50;86.20
21493;DHT22;10908;50.690;4.400;2023-11-19T10:03:25;12.50;86.10
21493;DHT22;10908;50.690;4.400;2023-11-19T10:05:53;12.60;85.80
21493;DHT22;10908;50.690;4.400;2023-11-19T10:08:19;12.70;85.20
21493;DHT22;10908;50.690;4.400;2023-11-19T10:10:45;12.80;84.70
21493;DHT22;10908;50.690;4.400;2023-11-19T10:13:10;12.90;84.40
21493;DHT22;10908;50.690;4.400;2023-11-19T10:15:37;12.90;83.50
21493;DHT22;10908;50.690;4.400;2023-11-19T10:18:03;12.90;83.40
21493;DHT22;10908;50.690;4.400;2023-11-19T10:20:40;13.00;83.30
21493;DHT22;10908;50.690;4.400;2023-11-19T10:23:06;13.00;83.00
21493;DHT22;10908;50.690;4.400;2023-11-19T10:25:33;13.00;82.80
21493;DHT22;10908;50.690;4.400;2023-11-19T10:27:58;13.10;82.80
21493;DHT22;10908;50.690;4.400;2023-11-19T10:30:29;13.10;82.60
21493;DHT22;10908;50.690;4.400;2023-11-19T10:33:14;13.20;82.80
21493;DHT22;10908;50.690;4.400;2023-11-19T10:38:18;13.20;83.00
21493;DHT22;10908;50.690;4.400;2023-11-19T10:40:44;13.20;83.40
21493;DHT22;10908;50.690;4.400;2023-11-19T10:43:10;13.20;83.50
21493;DHT22;10908;50.690;4.400;2023-11-19T10:45:36;13.10;83.40
21493;DHT22;10908;50.690;4.400;2023-11-19T10:48:03;13.20;83.60
21493;DHT22;10908;50.690;4.400;2023-11-19T10:50:37;13.20;83.20
21493;DHT22;10908;50.690;4.400;2023-11-19T10:53:05;13.30;83.20
21493;DHT22;10908;50.690;4.400;2023-11-19T10:55:38;13.30;82.80
21493;DHT22;10908;50.690;4.400;2023-11-19T10:58:10;13.30;82.90
21493;DHT22;10908;50.690;4.400;2023-11-19T11:00:54;13.30;82.60
21493;DHT22;10908;50.690;4.400;2023-11-19T11:03:23;13.40;82.20
21493;DHT22;10908;50.690;4.400;2023-11-19T11:05:51;13.60;82.30
21493;DHT22;10908;50.690;4.400;2023-11-19T11:08:18;13.60;81.70
21493;DHT22;10908;50.690;4.400;2023-11-19T11:10:52;13.50;81.70
21493;DHT22;10908;50.690;4.400;2023-11-19T11:13:19;13.40;82.00
21493;DHT22;10908;50.690;4.400;2023-11-19T11:15:48;13.30;82.90
21493;DHT22;10908;50.690;4.400;2023-11-19T11:18:13;13.20;83.60
21493;DHT22;10908;50.690;4.400;2023-11-19T11:20:40;13.20;84.00
21493;DHT22;10908;50.690;4.400;2023-11-19T11:28:59;13.00;84.90
21493;DHT22;10908;50.690;4.400;2023-11-19T11:31:41;13.20;85.00
21493;DHT22;10908;50.690;4.400;2023-11-19T11:39:33;13.30;83.10
21493;DHT22;10908;50.690;4.400;2023-11-19T11:50:14;13.40;82.30
21493;DHT22;10908;50.690;4.400;2023-11-19T11:55:27;13.40;81.40
21493;DHT22;10908;50.690;4.400;2023-11-19T11:57:56;13.40;81.40
21493;DHT22;10908;50.690;4.400;2023-11-19T12:00:32;13.40;81.80
21493;DHT22;10908;50.690;4.400;2023-11-19T12:03:00;13.40;82.20
21493;DHT22;10908;50.690;4.400;2023-11-19T12:05:26;13.40;81.90
21493;DHT22;10908;50.690;4.400;2023-11-19T12:08:03;13.30;82.30
21493;DHT22;10908;50.690;4.400;2023-11-19T12:10:34;13.40;82.40
21493;DHT22;10908;50.690;4.400;2023-11-19T12:13:05;13.40;82.60
21493;DHT22;10908;50.690;4.400;2023-11-19T12:15:32;13.30;82.70
21493;DHT22;10908;50.690;4.400;2023-11-19T12:17:58;13.40;83.20
21493;DHT22;10908;50.690;4.400;2023-11-19T12:20:26;13.30;82.90
21493;DHT22;10908;50.690;4.400;2023-11-19T12:22:52;13.30;82.90
21493;DHT22;10908;50.690;4.400;2023-11-19T12:25:19;13.30;83.10
21493;DHT22;10908;50.690;4.400;2023-11-19T12:27:47;13.30;83.10
21493;DHT22;10908;50.690;4.400;2023-11-19T12:30:23;13.20;83.10
21493;DHT22;10908;50.690;4.400;2023-11-19T12:32:53;13.10;83.40
21493;DHT22;10908;50.690;4.400;2023-11-19T12:35:19;13.20;83.40
21493;DHT22;10908;50.690;4.400;2023-11-19T12:37:49;13.20;83.40
21493;DHT22;10908;50.690;4.400;2023-11-19T12:40:23;13.20;83.10
21493;DHT22;10908;50.690;4.400;2023-11-19T12:42:50;13.30;83.40
21493;DHT22;10908;50.690;4.400;2023-11-19T12:45:16;13.30;83.00
21493;DHT22;10908;50.690;4.400;2023-11-19T12:47:43;13.40;82.30
21493;DHT22;10908;50.690;4.400;2023-11-19T12:50:10;13.40;82.40
21493;DHT22;10908;50.690;4.400;2023-11-19T12:52:36;13.40;82.40
21493;DHT22;10908;50.690;4.400;2023-11-19T12:55:03;13.40;82.40
21493;DHT22;10908;50.690;4.400;2023-11-19T12:57:55;13.50;82.10
21493;DHT22;10908;50.690;4.400;2023-11-19T13:00:25;13.50;81.20
21493;DHT22;10908;50.690;4.400;2023-11-19T13:02:53;13.40;81.00
21493;DHT22;10908;50.690;4.400;2023-11-19T13:05:32;13.40;81.00
21493;DHT22;10908;50.690;4.400;2023-11-19T13:08:02;13.50;81.10
21493;DHT22;10908;50.690;4.400;2023-11-19T13:10:30;13.50;81.00
21493;DHT22;10908;50.690;4.400;2023-11-19T13:13:04;13.30;81.50
21493;DHT22;10908;50.690;4.400;2023-11-19T13:15:31;13.10;82.70
21493;DHT22;10908;50.690;4.400;2023-11-19T13:17:57;13.00;83.50
21493;DHT22;10908;50.690;4.400;2023-11-19T13:20:23;13.00;84.30
21493;DHT22;10908;50.690;4.400;2023-11-19T13:22:55;13.00;84.40
21493;DHT22;10908;50.690;4.400;2023-11-19T13:25:21;12.90;84.50
21493;DHT22;10908;50.690;4.400;2023-11-19T13:27:46;12.80;84.90
21493;DHT22;10908;50.690;4.400;2023-11-19T13:30:12;12.90;84.80
21493;DHT22;10908;50.690;4.400;2023-11-19T13:32:38;12.90;84.60
21493;DHT22;10908;50.690;4.400;2023-11-19T13:35:05;12.80;85.10
21493;DHT22;10908;50.690;4.400;2023-11-19T13:37:30;12.80;85.00
21493;DHT22;10908;50.690;4.400;2023-11-19T13:39:56;12.90;85.50
21493;DHT22;10908;50.690;4.400;2023-11-19T13:42:22;12.90;85.20
21493;DHT22;10908;50.690;4.400;2023-11-19T13:44:47;12.90;84.60
21493;DHT22;10908;50.690;4.400;2023-11-19T13:47:13;12.90;84.90
21493;DHT22;10908;50.690;4.400;2023-11-19T13:49:39;12.90;84.10
21493;DHT22;10908;50.690;4.400;2023-11-19T13:52:05;12.90;84.20
21493;DHT22;10908;50.690;4.400;2023-11-19T13:54:31;13.10;84.10
21493;DHT22;10908;50.690;4.400;2023-11-19T13:56:56;13.10;84.20
21493;DHT22;10908;50.690;4.400;2023-11-19T13:59:26;13.10;84.00
21493;DHT22;10908;50.690;4.400;2023-11-19T14:01:52;13.10;83.60
21493;DHT22;10908;50.690;4.400;2023-11-19T14:04:18;13.10;83.60
21493;DHT22;10908;50.690;4.400;2023-11-19T14:06:46;13.30;83.80
21493;DHT22;10908;50.690;4.400;2023-11-19T14:09:12;13.20;83.50
21493;DHT22;10908;50.690;4.400;2023-11-19T14:11:38;13.30;82.60
21493;DHT22;10908;50.690;4.400;2023-11-19T14:14:04;13.20;82.00
21493;DHT22;10908;50.690;4.400;2023-11-19T14:16:29;13.30;82.40
21493;DHT22;10908;50.690;4.400;2023-11-19T14:18:56;13.40;81.80
21493;DHT22;10908;50.690;4.400;2023-11-19T14:21:22;13.40;81.40
21493;DHT22;10908;50.690;4.400;2023-11-19T14:23:47;13.30;81.30
21493;DHT22;10908;50.690;4.400;2023-11-19T14:26:13;13.30;81.00
21493;DHT22;10908;50.690;4.400;2023-11-19T14:28:39;13.30;81.10
21493;DHT22;10908;50.690;4.400;2023-11-19T14:31:04;13.30;81.10
21493;DHT22;10908;50.690;4.400;2023-11-19T14:33:30;13.20;81.70
21493;DHT22;10908;50.690;4.400;2023-11-19T14:35:56;13.20;82.00
21493;DHT22;10908;50.690;4.400;2023-11-19T14:38:22;13.10;82.30
21493;DHT22;10908;50.690;4.400;2023-11-19T14:40:48;13.20;82.30
21493;DHT22;10908;50.690;4.400;2023-11-19T14:43:13;13.10;81.80
21493;DHT22;10908;50.690;4.400;2023-11-19T14:45:40;13.10;81.40
21493;DHT22;10908;50.690;4.400;2023-11-19T14:48:06;13.00;81.50
21493;DHT22;10908;50.690;4.400;2023-11-19T14:50:32;13.00;81.80
21493;DHT22;10908;50.690;4.400;2023-11-19T14:52:57;12.90;81.80
21493;DHT22;10908;50.690;4.400;2023-11-19T14:55:23;13.00;81.60
21493;DHT22;10908;50.690;4.400;2023-11-19T14:57:49;13.10;81.30
21493;DHT22;10908;50.690;4.400;2023-11-19T15:00:16;13.00;81.20
21493;DHT22;10908;50.690;4.400;2023-11-19T15:02:42;13.00;81.30
21493;DHT22;10908;50.690;4.400;2023-11-19T15:05:08;13.10;81.20
21493;DHT22;10908;50.690;4.400;2023-11-19T15:07:37;13.00;81.10
21493;DHT22;10908;50.690;4.400;2023-11-19T15:10:04;12.90;81.20
21493;DHT22;10908;50.690;4.400;2023-11-19T15:12:35;13.00;81.00
21493;DHT22;10908;50.690;4.400;2023-11-19T15:15:08;12.90;81.00
21493;DHT22;10908;50.690;4.400;2023-11-19T15:17:35;12.90;80.90
21493;DHT22;10908;50.690;4.400;2023-11-19T15:20:03;12.90;81.00
21493;DHT22;10908;50.690;4.400;2023-11-19T15:22:29;12.90;80.70
21493;DHT22;10908;50.690;4.400;2023-11-19T15:24:56;12.90;80.70
21493;DHT22;10908;50.690;4.400;2023-11-19T15:27:23;13.00;80.70
21493;DHT22;10908;50.690;4.400;2023-11-19T15:29:48;13.00;79.90
21493;DHT22;10908;50.690;4.400;2023-11-19T15:32:14;12.90;80.10
21493;DHT22;10908;50.690;4.400;2023-11-19T15:34:40;12.90;79.90
21493;DHT22;10908;50.690;4.400;2023-11-19T15:37:07;13.00;79.80
21493;DHT22;10908;50.690;4.400;2023-11-19T15:39:33;13.00;79.30
21493;DHT22;10908;50.690;4.400;2023-11-19T15:43:26;13.10;78.90
21493;DHT22;10908;50.690;4.400;2023-11-19T15:45:52;13.00;79.00
21493;DHT22;10908;50.690;4.400;2023-11-19T15:48:18;13.00;79.20
21493;DHT22;10908;50.690;4.400;2023-11-19T15:50:44;13.00;79.10
21493;DHT22;10908;50.690;4.400;2023-11-19T15:53:10;13.00;79.30
21493;DHT22;10908;50.690;4.400;2023-11-19T15:55:36;13.00;79.30
21493;DHT22;10908;50.690;4.400;2023-11-19T15:58:02;12.90;79.70